MSC Fortunate — 3FLG6 — position and weather

sailwx.info

Track history (hours):
 
Tides and Currents Weather Stations Pressure Air Temp Water Temp Dewpoint Dewpoint Depression Visibility Wind Speed Wind Dir Waves Ship Positions

MSC Fortunate

Last reported at 2015-Apr-02 03:05 UTC. Time now 2015-Apr-02 09:49 UTC.
Position N 36°18' W 008°05'.

Length 275 m; draft 13.6 m.

Type: Ship. MMSI: 356708000.

Date/timePositionNaut miles runAvg speedWind from/ knotsBaromVisibWave heightAir tempDewpointWater temp
2015-Apr-02 03:05N 36°18' W 008°05'1018.0
2015-Apr-02 02:31N 36°21' W 008°18'1718.1
2015-Apr-02 01:33N 36°25' W 008°39'1918.1
2015-Apr-02 00:30N 36°30' W 009°02'1718.0
2015-Apr-01 23:33N 36°36' W 009°21'1818.1
2015-Apr-01 22:33N 36°51' W 009°35'1918.4
2015-Apr-01 21:33N 37°09' W 009°40'1818.2
2015-Apr-01 20:33N 37°27' W 009°44'1818.3
2015-Apr-01 19:34N 37°44' W 009°48'1818.4
2015-Apr-01 18:34N 38°02' W 009°54'1918.6
2015-Apr-01 17:33N 38°20' W 010°00'1918.5
2015-Apr-01 16:32N 38°38' W 010°06'1818.5
2015-Apr-01 15:33N 38°57' W 010°06'1918.7
2015-Apr-01 14:31N 39°16' W 010°06'2018.6
2015-Apr-01 13:25N 39°36' W 010°06'68716.6
2015-Mar-30 20:05N 49°55' W 003°04'8615.4
2015-Mar-30 14:32N 49°44' W 000°52'1818.0
2015-Mar-30 13:34N 49°37' W 000°27'1615.8
2015-Mar-30 12:34N 49°31' W 000°05'9 8.9
2015-Mar-30 11:33N 49°28' E 000°08'0 0.0
2015-Mar-30 10:33N 49°28' E 000°08'0 0.0
2015-Mar-30 09:33N 49°28' E 000°08'0 0.0
2015-Mar-30 08:33N 49°28' E 000°08'0 0.0
2015-Mar-30 07:33N 49°28' E 000°08'0 0.0
2015-Mar-30 06:33N 49°28' E 000°08'0 0.0
2015-Mar-30 05:33N 49°28' E 000°08'0 0.0
2015-Mar-30 04:33N 49°28' E 000°08'0 0.0
2015-Mar-30 03:33N 49°28' E 000°08'0 0.0
2015-Mar-30 02:33N 49°28' E 000°08'0 0.0
2015-Mar-30 01:33N 49°28' E 000°08'0 0.0
2015-Mar-30 00:33N 49°28' E 000°08'0 0.0
2015-Mar-29 23:33N 49°28' E 000°08'0 0.0
2015-Mar-29 22:33N 49°28' E 000°08'0 0.0
2015-Mar-29 21:33N 49°28' E 000°08'0 0.0
2015-Mar-29 20:33N 49°28' E 000°08'0 0.0
2015-Mar-29 19:33N 49°28' E 000°08'0 0.3
2015-Mar-29 18:33N 49°28' E 000°08'10 9.8
2015-Mar-29 17:33N 49°31' W 000°06'9 8.5
2015-Mar-29 16:33N 49°35' W 000°18'1211.9
2015-Mar-29 15:33N 49°46' W 000°23'4714.1
2015-Mar-29 12:15N 50°29' E 000°06'1116.3
2015-Mar-29 11:33N 50°32' E 000°23'1716.6
2015-Mar-29 10:33N 50°40' E 000°47'1717.0
2015-Mar-29 09:33N 50°49' E 001°09'1616.3
2015-Mar-29 08:33N 51°01' E 001°27'1615.7
2015-Mar-29 07:33N 51°12' E 001°44'1615.6
2015-Mar-29 06:33N 51°25' E 001°58'1515.2
2015-Mar-29 05:33N 51°21' E 002°22'1413.8
2015-Mar-29 04:34N 51°23' E 002°44'1212.2
2015-Mar-29 03:33N 51°25' E 003°03'1414.4
2015-Mar-29 02:33N 51°25' E 003°26'9 9.2
2015-Mar-29 01:34N 51°26' E 003°41'1110.6
2015-Mar-29 00:33N 51°25' E 003°58'1010.3
2015-Mar-28 23:34N 51°22' E 004°13'3 2.6
2015-Mar-28 22:34N 51°21' E 004°17'2 2.3
2015-Mar-28 21:33N 51°20' E 004°20'0 0.0
2015-Mar-28 20:32N 51°20' E 004°20'0 0.0
2015-Mar-28 19:32N 51°20' E 004°20'0 0.0
2015-Mar-28 18:32N 51°20' E 004°20'0 0.0
2015-Mar-28 17:32N 51°20' E 004°20'0 0.0
2015-Mar-28 16:32N 51°20' E 004°20'0 0.0
2015-Mar-28 15:32N 51°20' E 004°20'0 0.0
2015-Mar-28 14:32N 51°20' E 004°20'0 0.0
2015-Mar-28 13:32N 51°20' E 004°20'0 0.0
2015-Mar-28 12:29N 51°20' E 004°20'0 0.0
2015-Mar-28 11:29N 51°20' E 004°20'0 0.0
2015-Mar-28 10:32N 51°20' E 004°20'0 0.0
2015-Mar-28 09:32N 51°20' E 004°20'0 0.0
2015-Mar-28 08:29N 51°20' E 004°20'0 0.0
2015-Mar-28 07:32N 51°20' E 004°20'0 0.0
2015-Mar-28 06:29N 51°20' E 004°20'0 0.0
2015-Mar-28 05:32N 51°20' E 004°20'0 0.0
2015-Mar-28 04:29N 51°20' E 004°20'0 0.0
2015-Mar-28 03:32N 51°20' E 004°20'0 0.0
2015-Mar-28 02:29N 51°20' E 004°20'0 0.0
2015-Mar-28 01:32N 51°20' E 004°20'0 0.0
2015-Mar-28 00:29N 51°20' E 004°20'0 0.0
2015-Mar-27 23:32N 51°20' E 004°20'0 0.0
2015-Mar-27 22:32N 51°20' E 004°20'0 0.0
2015-Mar-27 21:32N 51°20' E 004°20'0 0.0
2015-Mar-27 20:32N 51°20' E 004°20'0 0.0
2015-Mar-27 19:32N 51°20' E 004°20'0 0.0
2015-Mar-27 18:32N 51°20' E 004°20'0 0.0
2015-Mar-27 17:32N 51°20' E 004°20'0 0.0
2015-Mar-27 16:23N 51°20' E 004°20'0 0.0
2015-Mar-27 15:33N 51°20' E 004°20'2 2.3
2015-Mar-27 14:34N 51°21' E 004°17'0 0.0
2015-Mar-27 13:33N 51°21' E 004°17'1 0.5
2015-Mar-27 12:33N 51°21' E 004°16'4 3.3
2015-Mar-27 11:31N 51°17' E 004°16'0 0.0
2015-Mar-27 10:34N 51°17' E 004°16'0 0.0
2015-Mar-27 09:28N 51°17' E 004°16'0 0.0
2015-Mar-27 08:31N 51°17' E 004°16'0 0.0
2015-Mar-27 07:28N 51°17' E 004°16'0 0.0
2015-Mar-27 06:31N 51°17' E 004°16'0 0.0
2015-Mar-27 05:34N 51°17' E 004°16'0 0.0
2015-Mar-27 04:34N 51°17' E 004°16'0 0.0
2015-Mar-27 03:31N 51°17' E 004°16'0 0.0
2015-Mar-27 02:31N 51°17' E 004°16'0 0.0
2015-Mar-27 01:34N 51°17' E 004°16'0 0.0
2015-Mar-27 00:31N 51°17' E 004°16'0 0.0
2015-Mar-26 23:31N 51°17' E 004°16'0 0.0
2015-Mar-26 22:34N 51°17' E 004°16'0 0.0
2015-Mar-26 21:31N 51°17' E 004°16'0 0.0
2015-Mar-26 20:34N 51°17' E 004°16'0 0.0
2015-Mar-26 19:34N 51°17' E 004°16'1 1.1
2015-Mar-26 18:34N 51°18' E 004°16'9 9.2
2015-Mar-26 17:34N 51°22' E 004°03'1211.6
2015-Mar-26 16:34N 51°22' E 003°45'1211.5
2015-Mar-26 15:33N 51°25' E 003°27'1717.1
2015-Mar-26 14:34N 51°25' E 002°59'1515.0
2015-Mar-26 13:32N 51°39' E 003°11'1111.3
2015-Mar-26 12:32N 51°50' E 003°16'1917.5
2015-Mar-26 11:28N 52°08' E 003°22'3417.8
2015-Mar-26 09:33N 52°41' E 003°35'1717.4
2015-Mar-26 08:33N 52°54' E 003°54'1717.4
2015-Mar-26 07:34N 53°05' E 004°17'1817.4
2015-Mar-26 06:31N 53°20' E 004°33'1818.3
2015-Mar-26 05:33N 53°32' E 004°55'2020.0
2015-Mar-26 04:33N 53°39' E 005°26'2019.6
2015-Mar-26 03:33N 53°46' E 005°58'4118.5
2015-Mar-26 01:22N 53°56' E 007°04'1417.5
2015-Mar-26 00:33N 53°59' E 007°27'1717.0
2015-Mar-25 23:33N 54°00' E 007°56'1414.2
2015-Mar-25 22:33N 53°60' E 008°20'1716.6
2015-Mar-25 21:33N 53°51' E 008°45'1615.6
2015-Mar-25 20:33N 53°53' E 009°11'1515.0
2015-Mar-25 19:33N 53°42' E 009°29'1111.0
2015-Mar-25 18:34N 53°34' E 009°42'8 8.1
2015-Mar-25 17:33N 53°32' E 009°55'0 0.1
2015-Mar-25 16:33N 53°32' E 009°55'0 0.0
2015-Mar-25 15:30N 53°32' E 009°55'0 0.0
2015-Mar-25 14:30N 53°32' E 009°55'0 0.0
2015-Mar-25 13:30N 53°32' E 009°55'0 0.0
2015-Mar-25 12:31N 53°32' E 009°55'0 0.0
2015-Mar-25 11:33N 53°32' E 009°55'0 0.0
2015-Mar-25 10:33N 53°32' E 009°55'0 0.0
2015-Mar-25 09:33N 53°32' E 009°55'0 0.0
2015-Mar-25 08:33N 53°32' E 009°55'0 0.0
2015-Mar-25 07:33N 53°32' E 009°55'0 0.0
2015-Mar-25 06:33N 53°32' E 009°55'0 0.0
2015-Mar-25 05:30N 53°32' E 009°55'0 0.0
2015-Mar-25 04:33N 53°32' E 009°55'0 0.0
2015-Mar-25 03:30N 53°32' E 009°55'0 0.0
2015-Mar-25 02:33N 53°32' E 009°55'0 0.0
2015-Mar-25 01:33N 53°32' E 009°55'0 0.0
2015-Mar-25 00:33N 53°32' E 009°55'0 0.0
2015-Mar-24 23:33N 53°32' E 009°55'0 0.0
2015-Mar-24 22:33N 53°32' E 009°55'0 0.0
2015-Mar-24 21:30N 53°32' E 009°55'0 0.0
2015-Mar-24 20:30N 53°32' E 009°55'0 0.0
2015-Mar-24 19:27N 53°32' E 009°55'2 2.6
2015-Mar-24 18:33N 53°33' E 009°51'1211.9
2015-Mar-24 17:33N 53°38' E 009°32'1413.6
2015-Mar-24 16:34N 53°50' E 009°22'1212.3
2015-Mar-24 15:34N 53°51' E 009°01'1413.7
2015-Mar-24 14:34N 53°56' E 008°39'1717.3
2015-Mar-24 13:33N 53°60' E 008°10'3 2.8
2015-Mar-24 12:33N 54°00' E 008°15'10 8.2
2015-Mar-24 11:20N 53°59' E 007°58'911.1
2015-Mar-24 10:33N 53°57' E 007°44'1716.9
2015-Mar-24 09:33N 53°53' E 007°16'3617.1
2015-Mar-24 07:25N 53°45' E 006°16'1517.3
2015-Mar-24 06:33N 53°40' E 005°52'1817.8
2015-Mar-24 05:33N 53°35' E 005°23'1817.8
2015-Mar-24 04:33N 53°28' E 004°55'1816.9
2015-Mar-24 03:31N 53°15' E 004°35'1718.0
2015-Mar-24 02:33N 52°60' E 004°21'1918.7
2015-Mar-24 01:33N 52°44' E 004°05'1818.3
2015-Mar-24 00:33N 52°27' E 003°53'1716.9
2015-Mar-23 23:33N 52°10' E 003°54'1110.8
2015-Mar-23 22:33N 52°00' E 004°01'3 3.2
2015-Mar-23 21:32N 51°58' E 004°04'0 0.0
2015-Mar-23 20:32N 51°58' E 004°04'0 0.0
2015-Mar-23 19:29N 51°58' E 004°04'0 0.0
2015-Mar-23 18:32N 51°58' E 004°04'0 0.0
2015-Mar-23 17:32N 51°58' E 004°04'0 0.0
2015-Mar-23 16:32N 51°58' E 004°04'0 0.0
2015-Mar-23 15:32N 51°58' E 004°04'0 0.0
2015-Mar-23 14:32N 51°58' E 004°04'0 0.0
2015-Mar-23 13:32N 51°58' E 004°04'0 0.0
2015-Mar-23 12:32N 51°58' E 004°04'0 0.0
2015-Mar-23 11:32N 51°58' E 004°04'0 0.0
2015-Mar-23 10:32N 51°58' E 004°04'0 0.0
2015-Mar-23 09:32N 51°58' E 004°04'0 0.0
2015-Mar-23 08:32N 51°58' E 004°04'0 0.0
2015-Mar-23 07:32N 51°58' E 004°04'0 0.0
2015-Mar-23 06:29N 51°58' E 004°04'0 0.0
2015-Mar-23 05:29N 51°58' E 004°04'0 0.0
2015-Mar-23 04:32N 51°58' E 004°04'0 0.0
2015-Mar-23 03:32N 51°58' E 004°04'  
Track history (hours):
 
Tides and Currents Weather Stations Pressure Air Temp Water Temp Dewpoint Dewpoint Depression Visibility Wind Speed Wind Dir Waves Ship Positions

MSC Fortunate

Last reported at 2015-Apr-02 03:05 UTC. Time now 2015-Apr-02 09:49 UTC.
Position N 36°18' W 008°05'.

Length 275 m; draft 13.6 m.

Type: Ship. MMSI: 356708000.

Date/timePositionNaut miles runAvg speedWind from/ knotsBaromVisibWave heightAir tempDewpointWater temp
2015-Apr-02 03:05N 36°18' W 008°05'1018.0
2015-Apr-02 02:31N 36°21' W 008°18'1718.1
2015-Apr-02 01:33N 36°25' W 008°39'1918.1
2015-Apr-02 00:30N 36°30' W 009°02'1718.0
2015-Apr-01 23:33N 36°36' W 009°21'1818.1
2015-Apr-01 22:33N 36°51' W 009°35'1918.4
2015-Apr-01 21:33N 37°09' W 009°40'1818.2
2015-Apr-01 20:33N 37°27' W 009°44'1818.3
2015-Apr-01 19:34N 37°44' W 009°48'1818.4
2015-Apr-01 18:34N 38°02' W 009°54'1918.6
2015-Apr-01 17:33N 38°20' W 010°00'1918.5
2015-Apr-01 16:32N 38°38' W 010°06'1818.5
2015-Apr-01 15:33N 38°57' W 010°06'1918.7
2015-Apr-01 14:31N 39°16' W 010°06'2018.6
2015-Apr-01 13:25N 39°36' W 010°06'68716.6
2015-Mar-30 20:05N 49°55' W 003°04'8615.4
2015-Mar-30 14:32N 49°44' W 000°52'1818.0
2015-Mar-30 13:34N 49°37' W 000°27'1615.8
2015-Mar-30 12:34N 49°31' W 000°05'9 8.9
2015-Mar-30 11:33N 49°28' E 000°08'0 0.0
2015-Mar-30 10:33N 49°28' E 000°08'0 0.0
2015-Mar-30 09:33N 49°28' E 000°08'0 0.0
2015-Mar-30 08:33N 49°28' E 000°08'0 0.0
2015-Mar-30 07:33N 49°28' E 000°08'0 0.0
2015-Mar-30 06:33N 49°28' E 000°08'0 0.0
2015-Mar-30 05:33N 49°28' E 000°08'0 0.0
2015-Mar-30 04:33N 49°28' E 000°08'0 0.0
2015-Mar-30 03:33N 49°28' E 000°08'0 0.0
2015-Mar-30 02:33N 49°28' E 000°08'0 0.0
2015-Mar-30 01:33N 49°28' E 000°08'0 0.0
2015-Mar-30 00:33N 49°28' E 000°08'0 0.0
2015-Mar-29 23:33N 49°28' E 000°08'0 0.0
2015-Mar-29 22:33N 49°28' E 000°08'0 0.0
2015-Mar-29 21:33N 49°28' E 000°08'0 0.0
2015-Mar-29 20:33N 49°28' E 000°08'0 0.0
2015-Mar-29 19:33N 49°28' E 000°08'0 0.3
2015-Mar-29 18:33N 49°28' E 000°08'10 9.8
2015-Mar-29 17:33N 49°31' W 000°06'9 8.5
2015-Mar-29 16:33N 49°35' W 000°18'1211.9
2015-Mar-29 15:33N 49°46' W 000°23'4714.1
2015-Mar-29 12:15N 50°29' E 000°06'1116.3
2015-Mar-29 11:33N 50°32' E 000°23'1716.6
2015-Mar-29 10:33N 50°40' E 000°47'1717.0
2015-Mar-29 09:33N 50°49' E 001°09'1616.3
2015-Mar-29 08:33N 51°01' E 001°27'1615.7
2015-Mar-29 07:33N 51°12' E 001°44'1615.6
2015-Mar-29 06:33N 51°25' E 001°58'1515.2
2015-Mar-29 05:33N 51°21' E 002°22'1413.8
2015-Mar-29 04:34N 51°23' E 002°44'1212.2
2015-Mar-29 03:33N 51°25' E 003°03'1414.4
2015-Mar-29 02:33N 51°25' E 003°26'9 9.2
2015-Mar-29 01:34N 51°26' E 003°41'1110.6
2015-Mar-29 00:33N 51°25' E 003°58'1010.3
2015-Mar-28 23:34N 51°22' E 004°13'3 2.6
2015-Mar-28 22:34N 51°21' E 004°17'2 2.3
2015-Mar-28 21:33N 51°20' E 004°20'0 0.0
2015-Mar-28 20:32N 51°20' E 004°20'0 0.0
2015-Mar-28 19:32N 51°20' E 004°20'0 0.0
2015-Mar-28 18:32N 51°20' E 004°20'0 0.0
2015-Mar-28 17:32N 51°20' E 004°20'0 0.0
2015-Mar-28 16:32N 51°20' E 004°20'0 0.0
2015-Mar-28 15:32N 51°20' E 004°20'0 0.0
2015-Mar-28 14:32N 51°20' E 004°20'0 0.0
2015-Mar-28 13:32N 51°20' E 004°20'0 0.0
2015-Mar-28 12:29N 51°20' E 004°20'0 0.0
2015-Mar-28 11:29N 51°20' E 004°20'0 0.0
2015-Mar-28 10:32N 51°20' E 004°20'0 0.0
2015-Mar-28 09:32N 51°20' E 004°20'0 0.0
2015-Mar-28 08:29N 51°20' E 004°20'0 0.0
2015-Mar-28 07:32N 51°20' E 004°20'0 0.0
2015-Mar-28 06:29N 51°20' E 004°20'0 0.0
2015-Mar-28 05:32N 51°20' E 004°20'0 0.0
2015-Mar-28 04:29N 51°20' E 004°20'0 0.0
2015-Mar-28 03:32N 51°20' E 004°20'0 0.0
2015-Mar-28 02:29N 51°20' E 004°20'0 0.0
2015-Mar-28 01:32N 51°20' E 004°20'0 0.0
2015-Mar-28 00:29N 51°20' E 004°20'0 0.0
2015-Mar-27 23:32N 51°20' E 004°20'0 0.0
2015-Mar-27 22:32N 51°20' E 004°20'0 0.0
2015-Mar-27 21:32N 51°20' E 004°20'0 0.0
2015-Mar-27 20:32N 51°20' E 004°20'0 0.0
2015-Mar-27 19:32N 51°20' E 004°20'0 0.0
2015-Mar-27 18:32N 51°20' E 004°20'0 0.0
2015-Mar-27 17:32N 51°20' E 004°20'0 0.0
2015-Mar-27 16:23N 51°20' E 004°20'0 0.0
2015-Mar-27 15:33N 51°20' E 004°20'2 2.3
2015-Mar-27 14:34N 51°21' E 004°17'0 0.0
2015-Mar-27 13:33N 51°21' E 004°17'1 0.5
2015-Mar-27 12:33N 51°21' E 004°16'4 3.3
2015-Mar-27 11:31N 51°17' E 004°16'0 0.0
2015-Mar-27 10:34N 51°17' E 004°16'0 0.0
2015-Mar-27 09:28N 51°17' E 004°16'0 0.0
2015-Mar-27 08:31N 51°17' E 004°16'0 0.0
2015-Mar-27 07:28N 51°17' E 004°16'0 0.0
2015-Mar-27 06:31N 51°17' E 004°16'0 0.0
2015-Mar-27 05:34N 51°17' E 004°16'0 0.0
2015-Mar-27 04:34N 51°17' E 004°16'0 0.0
2015-Mar-27 03:31N 51°17' E 004°16'0 0.0
2015-Mar-27 02:31N 51°17' E 004°16'0 0.0
2015-Mar-27 01:34N 51°17' E 004°16'0 0.0
2015-Mar-27 00:31N 51°17' E 004°16'0 0.0
2015-Mar-26 23:31N 51°17' E 004°16'0 0.0
2015-Mar-26 22:34N 51°17' E 004°16'0 0.0
2015-Mar-26 21:31N 51°17' E 004°16'0 0.0
2015-Mar-26 20:34N 51°17' E 004°16'0 0.0
2015-Mar-26 19:34N 51°17' E 004°16'1 1.1
2015-Mar-26 18:34N 51°18' E 004°16'9 9.2
2015-Mar-26 17:34N 51°22' E 004°03'1211.6
2015-Mar-26 16:34N 51°22' E 003°45'1211.5
2015-Mar-26 15:33N 51°25' E 003°27'1717.1
2015-Mar-26 14:34N 51°25' E 002°59'1515.0
2015-Mar-26 13:32N 51°39' E 003°11'1111.3
2015-Mar-26 12:32N 51°50' E 003°16'1917.5
2015-Mar-26 11:28N 52°08' E 003°22'3417.8
2015-Mar-26 09:33N 52°41' E 003°35'1717.4
2015-Mar-26 08:33N 52°54' E 003°54'1717.4
2015-Mar-26 07:34N 53°05' E 004°17'1817.4
2015-Mar-26 06:31N 53°20' E 004°33'1818.3
2015-Mar-26 05:33N 53°32' E 004°55'2020.0
2015-Mar-26 04:33N 53°39' E 005°26'2019.6
2015-Mar-26 03:33N 53°46' E 005°58'4118.5
2015-Mar-26 01:22N 53°56' E 007°04'1417.5
2015-Mar-26 00:33N 53°59' E 007°27'1717.0
2015-Mar-25 23:33N 54°00' E 007°56'1414.2
2015-Mar-25 22:33N 53°60' E 008°20'1716.6
2015-Mar-25 21:33N 53°51' E 008°45'1615.6
2015-Mar-25 20:33N 53°53' E 009°11'1515.0
2015-Mar-25 19:33N 53°42' E 009°29'1111.0
2015-Mar-25 18:34N 53°34' E 009°42'8 8.1
2015-Mar-25 17:33N 53°32' E 009°55'0 0.1
2015-Mar-25 16:33N 53°32' E 009°55'0 0.0
2015-Mar-25 15:30N 53°32' E 009°55'0 0.0
2015-Mar-25 14:30N 53°32' E 009°55'0 0.0
2015-Mar-25 13:30N 53°32' E 009°55'0 0.0
2015-Mar-25 12:31N 53°32' E 009°55'0 0.0
2015-Mar-25 11:33N 53°32' E 009°55'0 0.0
2015-Mar-25 10:33N 53°32' E 009°55'0 0.0
2015-Mar-25 09:33N 53°32' E 009°55'0 0.0
2015-Mar-25 08:33N 53°32' E 009°55'0 0.0
2015-Mar-25 07:33N 53°32' E 009°55'0 0.0
2015-Mar-25 06:33N 53°32' E 009°55'0 0.0
2015-Mar-25 05:30N 53°32' E 009°55'0 0.0
2015-Mar-25 04:33N 53°32' E 009°55'0 0.0
2015-Mar-25 03:30N 53°32' E 009°55'0 0.0
2015-Mar-25 02:33N 53°32' E 009°55'0 0.0
2015-Mar-25 01:33N 53°32' E 009°55'0 0.0
2015-Mar-25 00:33N 53°32' E 009°55'0 0.0
2015-Mar-24 23:33N 53°32' E 009°55'0 0.0
2015-Mar-24 22:33N 53°32' E 009°55'0 0.0
2015-Mar-24 21:30N 53°32' E 009°55'0 0.0
2015-Mar-24 20:30N 53°32' E 009°55'0 0.0
2015-Mar-24 19:27N 53°32' E 009°55'2 2.6
2015-Mar-24 18:33N 53°33' E 009°51'1211.9
2015-Mar-24 17:33N 53°38' E 009°32'1413.6
2015-Mar-24 16:34N 53°50' E 009°22'1212.3
2015-Mar-24 15:34N 53°51' E 009°01'1413.7
2015-Mar-24 14:34N 53°56' E 008°39'1717.3
2015-Mar-24 13:33N 53°60' E 008°10'3 2.8
2015-Mar-24 12:33N 54°00' E 008°15'10 8.2
2015-Mar-24 11:20N 53°59' E 007°58'911.1
2015-Mar-24 10:33N 53°57' E 007°44'1716.9
2015-Mar-24 09:33N 53°53' E 007°16'3617.1
2015-Mar-24 07:25N 53°45' E 006°16'1517.3
2015-Mar-24 06:33N 53°40' E 005°52'1817.8
2015-Mar-24 05:33N 53°35' E 005°23'1817.8
2015-Mar-24 04:33N 53°28' E 004°55'1816.9
2015-Mar-24 03:31N 53°15' E 004°35'1718.0
2015-Mar-24 02:33N 52°60' E 004°21'1918.7
2015-Mar-24 01:33N 52°44' E 004°05'1818.3
2015-Mar-24 00:33N 52°27' E 003°53'1716.9
2015-Mar-23 23:33N 52°10' E 003°54'1110.8
2015-Mar-23 22:33N 52°00' E 004°01'3 3.2
2015-Mar-23 21:32N 51°58' E 004°04'0 0.0
2015-Mar-23 20:32N 51°58' E 004°04'0 0.0
2015-Mar-23 19:29N 51°58' E 004°04'0 0.0
2015-Mar-23 18:32N 51°58' E 004°04'0 0.0
2015-Mar-23 17:32N 51°58' E 004°04'0 0.0
2015-Mar-23 16:32N 51°58' E 004°04'0 0.0
2015-Mar-23 15:32N 51°58' E 004°04'0 0.0
2015-Mar-23 14:32N 51°58' E 004°04'0 0.0
2015-Mar-23 13:32N 51°58' E 004°04'0 0.0
2015-Mar-23 12:32N 51°58' E 004°04'0 0.0
2015-Mar-23 11:32N 51°58' E 004°04'0 0.0
2015-Mar-23 10:32N 51°58' E 004°04'0 0.0
2015-Mar-23 09:32N 51°58' E 004°04'0 0.0
2015-Mar-23 08:32N 51°58' E 004°04'0 0.0
2015-Mar-23 07:32N 51°58' E 004°04'0 0.0
2015-Mar-23 06:29N 51°58' E 004°04'0 0.0
2015-Mar-23 05:29N 51°58' E 004°04'0 0.0
2015-Mar-23 04:32N 51°58' E 004°04'0 0.0
2015-Mar-23 03:32N 51°58' E 004°04'  

Dump ship's entire track history